sensor_id;sensor_type;location;lat;lon;timestamp;P1;durP1;ratioP1;P2;durP2;ratioP2
11590;SDS011;5851;54.050;9.974;2023-08-06T00:01:24;3.42;;;2.75;;
11590;SDS011;5851;54.050;9.974;2023-08-06T00:03:51;3.58;;;2.50;;
11590;SDS011;5851;54.050;9.974;2023-08-06T00:06:19;4.35;;;3.00;;
11590;SDS011;5851;54.050;9.974;2023-08-06T00:08:46;5.68;;;2.45;;
11590;SDS011;5851;54.050;9.974;2023-08-06T00:11:13;3.42;;;2.53;;
11590;SDS011;5851;54.050;9.974;2023-08-06T00:13:40;7.03;;;2.93;;
11590;SDS011;5851;54.050;9.974;2023-08-06T00:16:10;3.77;;;2.53;;
11590;SDS011;5851;54.050;9.974;2023-08-06T00:18:37;3.53;;;2.90;;
11590;SDS011;5851;54.050;9.974;2023-08-06T00:21:04;3.67;;;2.47;;
11590;SDS011;5851;54.050;9.974;2023-08-06T00:23:32;4.03;;;2.80;;
11590;SDS011;5851;54.050;9.974;2023-08-06T00:25:59;3.33;;;2.70;;
11590;SDS011;5851;54.050;9.974;2023-08-06T00:28:26;3.63;;;3.00;;
11590;SDS011;5851;54.050;9.974;2023-08-06T00:30:53;6.70;;;3.20;;
11590;SDS011;5851;54.050;9.974;2023-08-06T00:33:20;3.27;;;2.97;;
11590;SDS011;5851;54.050;9.974;2023-08-06T00:35:47;5.57;;;3.20;;
11590;SDS011;5851;54.050;9.974;2023-08-06T00:38:14;4.67;;;3.30;;
11590;SDS011;5851;54.050;9.974;2023-08-06T00:40:42;6.20;;;3.25;;
11590;SDS011;5851;54.050;9.974;2023-08-06T00:43:09;3.35;;;2.85;;
11590;SDS011;5851;54.050;9.974;2023-08-06T00:45:36;3.17;;;2.67;;
11590;SDS011;5851;54.050;9.974;2023-08-06T00:48:03;4.33;;;3.13;;
11590;SDS011;5851;54.050;9.974;2023-08-06T00:50:31;3.53;;;2.73;;
11590;SDS011;5851;54.050;9.974;2023-08-06T00:52:59;2.97;;;2.77;;
11590;SDS011;5851;54.050;9.974;2023-08-06T00:55:26;3.43;;;2.70;;
11590;SDS011;5851;54.050;9.974;2023-08-06T00:57:54;3.63;;;2.80;;
11590;SDS011;5851;54.050;9.974;2023-08-06T01:00:22;3.23;;;2.70;;
11590;SDS011;5851;54.050;9.974;2023-08-06T01:02:50;3.37;;;2.97;;
11590;SDS011;5851;54.050;9.974;2023-08-06T01:05:17;4.90;;;2.90;;
11590;SDS011;5851;54.050;9.974;2023-08-06T01:07:46;4.33;;;2.57;;
11590;SDS011;5851;54.050;9.974;2023-08-06T01:10:23;3.55;;;2.85;;
11590;SDS011;5851;54.050;9.974;2023-08-06T01:13:07;5.53;;;3.10;;
11590;SDS011;5851;54.050;9.974;2023-08-06T01:15:43;4.03;;;3.00;;
11590;SDS011;5851;54.050;9.974;2023-08-06T01:18:13;4.13;;;2.97;;
11590;SDS011;5851;54.050;9.974;2023-08-06T01:20:42;4.17;;;3.03;;
11590;SDS011;5851;54.050;9.974;2023-08-06T01:23:08;3.23;;;2.77;;
11590;SDS011;5851;54.050;9.974;2023-08-06T01:25:38;4.53;;;3.07;;
11590;SDS011;5851;54.050;9.974;2023-08-06T01:28:15;4.03;;;2.70;;
11590;SDS011;5851;54.050;9.974;2023-08-06T01:30:52;3.00;;;2.70;;
11590;SDS011;5851;54.050;9.974;2023-08-06T01:33:21;3.80;;;2.70;;
11590;SDS011;5851;54.050;9.974;2023-08-06T01:35:50;3.77;;;3.00;;
11590;SDS011;5851;54.050;9.974;2023-08-06T01:38:20;5.43;;;2.87;;
11590;SDS011;5851;54.050;9.974;2023-08-06T01:40:47;3.63;;;2.53;;
11590;SDS011;5851;54.050;9.974;2023-08-06T01:43:14;5.20;;;2.90;;
11590;SDS011;5851;54.050;9.974;2023-08-06T01:45:40;4.70;;;3.10;;
11590;SDS011;5851;54.050;9.974;2023-08-06T01:48:07;4.33;;;3.00;;
11590;SDS011;5851;54.050;9.974;2023-08-06T01:50:34;3.80;;;2.80;;
11590;SDS011;5851;54.050;9.974;2023-08-06T01:53:02;4.47;;;3.07;;
11590;SDS011;5851;54.050;9.974;2023-08-06T01:55:29;5.73;;;2.63;;
11590;SDS011;5851;54.050;9.974;2023-08-06T01:57:56;4.47;;;2.70;;
11590;SDS011;5851;54.050;9.974;2023-08-06T02:00:23;4.50;;;2.87;;
11590;SDS011;5851;54.050;9.974;2023-08-06T02:02:50;3.50;;;2.73;;
11590;SDS011;5851;54.050;9.974;2023-08-06T02:05:17;2.80;;;2.60;;
11590;SDS011;5851;54.050;9.974;2023-08-06T02:07:43;4.63;;;3.27;;
11590;SDS011;5851;54.050;9.974;2023-08-06T02:10:12;4.43;;;2.80;;
11590;SDS011;5851;54.050;9.974;2023-08-06T02:12:39;3.10;;;2.60;;
11590;SDS011;5851;54.050;9.974;2023-08-06T02:15:06;3.37;;;2.70;;
11590;SDS011;5851;54.050;9.974;2023-08-06T02:17:33;3.73;;;3.03;;
11590;SDS011;5851;54.050;9.974;2023-08-06T02:20:00;4.57;;;3.03;;
11590;SDS011;5851;54.050;9.974;2023-08-06T02:22:27;3.67;;;2.70;;
11590;SDS011;5851;54.050;9.974;2023-08-06T02:24:54;4.43;;;2.97;;
11590;SDS011;5851;54.050;9.974;2023-08-06T02:27:22;3.93;;;2.73;;
11590;SDS011;5851;54.050;9.974;2023-08-06T02:29:49;4.53;;;2.70;;
11590;SDS011;5851;54.050;9.974;2023-08-06T02:32:15;4.20;;;2.90;;
11590;SDS011;5851;54.050;9.974;2023-08-06T02:34:42;4.03;;;2.73;;
11590;SDS011;5851;54.050;9.974;2023-08-06T02:37:09;3.60;;;2.77;;
11590;SDS011;5851;54.050;9.974;2023-08-06T02:39:36;3.13;;;2.83;;
11590;SDS011;5851;54.050;9.974;2023-08-06T02:42:05;3.73;;;3.00;;
11590;SDS011;5851;54.050;9.974;2023-08-06T02:44:33;4.30;;;2.70;;
11590;SDS011;5851;54.050;9.974;2023-08-06T02:47:00;4.80;;;3.20;;
11590;SDS011;5851;54.050;9.974;2023-08-06T02:49:27;5.20;;;3.00;;
11590;SDS011;5851;54.050;9.974;2023-08-06T02:51:54;4.63;;;2.87;;
11590;SDS011;5851;54.050;9.974;2023-08-06T02:54:21;4.03;;;2.87;;
11590;SDS011;5851;54.050;9.974;2023-08-06T02:56:48;6.60;;;3.00;;
11590;SDS011;5851;54.050;9.974;2023-08-06T02:59:15;4.80;;;2.90;;
11590;SDS011;5851;54.050;9.974;2023-08-06T03:01:43;3.33;;;2.87;;
11590;SDS011;5851;54.050;9.974;2023-08-06T03:04:10;3.70;;;3.00;;
11590;SDS011;5851;54.050;9.974;2023-08-06T03:06:37;4.50;;;2.90;;
11590;SDS011;5851;54.050;9.974;2023-08-06T03:09:05;3.43;;;2.73;;
11590;SDS011;5851;54.050;9.974;2023-08-06T03:11:32;3.93;;;2.87;;
11590;SDS011;5851;54.050;9.974;2023-08-06T03:13:58;5.40;;;3.40;;
11590;SDS011;5851;54.050;9.974;2023-08-06T03:16:25;6.37;;;2.90;;
11590;SDS011;5851;54.050;9.974;2023-08-06T03:18:54;3.20;;;2.90;;
11590;SDS011;5851;54.050;9.974;2023-08-06T03:21:20;3.37;;;2.80;;
11590;SDS011;5851;54.050;9.974;2023-08-06T03:23:47;3.63;;;2.90;;
11590;SDS011;5851;54.050;9.974;2023-08-06T03:26:14;3.40;;;3.10;;
11590;SDS011;5851;54.050;9.974;2023-08-06T03:28:41;3.40;;;2.87;;
11590;SDS011;5851;54.050;9.974;2023-08-06T03:31:08;4.80;;;2.80;;
11590;SDS011;5851;54.050;9.974;2023-08-06T03:33:35;4.37;;;3.00;;
11590;SDS011;5851;54.050;9.974;2023-08-06T03:36:03;4.70;;;2.90;;
11590;SDS011;5851;54.050;9.974;2023-08-06T03:38:30;3.90;;;2.90;;
11590;SDS011;5851;54.050;9.974;2023-08-06T03:40:57;3.73;;;2.90;;
11590;SDS011;5851;54.050;9.974;2023-08-06T03:43:24;7.37;;;3.40;;
11590;SDS011;5851;54.050;9.974;2023-08-06T03:45:51;3.27;;;2.83;;
11590;SDS011;5851;54.050;9.974;2023-08-06T03:48:18;3.93;;;3.23;;
11590;SDS011;5851;54.050;9.974;2023-08-06T03:50:45;4.50;;;3.00;;
11590;SDS011;5851;54.050;9.974;2023-08-06T03:53:13;4.63;;;3.07;;
11590;SDS011;5851;54.050;9.974;2023-08-06T03:55:40;4.07;;;3.10;;
11590;SDS011;5851;54.050;9.974;2023-08-06T03:58:07;5.60;;;3.30;;
11590;SDS011;5851;54.050;9.974;2023-08-06T04:00:33;5.57;;;3.50;;
11590;SDS011;5851;54.050;9.974;2023-08-06T04:03:00;5.93;;;3.20;;
11590;SDS011;5851;54.050;9.974;2023-08-06T04:05:30;4.53;;;3.20;;
11590;SDS011;5851;54.050;9.974;2023-08-06T04:07:57;5.43;;;3.17;;
11590;SDS011;5851;54.050;9.974;2023-08-06T04:10:26;4.00;;;3.10;;
11590;SDS011;5851;54.050;9.974;2023-08-06T04:12:53;4.10;;;3.50;;
11590;SDS011;5851;54.050;9.974;2023-08-06T04:15:20;5.90;;;3.40;;
11590;SDS011;5851;54.050;9.974;2023-08-06T04:17:47;6.03;;;3.20;;
11590;SDS011;5851;54.050;9.974;2023-08-06T04:20:13;4.53;;;3.20;;
11590;SDS011;5851;54.050;9.974;2023-08-06T04:22:40;4.37;;;3.57;;
11590;SDS011;5851;54.050;9.974;2023-08-06T04:25:07;4.90;;;3.77;;
11590;SDS011;5851;54.050;9.974;2023-08-06T04:27:36;5.67;;;3.40;;
11590;SDS011;5851;54.050;9.974;2023-08-06T04:30:06;5.97;;;3.50;;
11590;SDS011;5851;54.050;9.974;2023-08-06T04:32:34;5.83;;;3.53;;
11590;SDS011;5851;54.050;9.974;2023-08-06T04:35:01;4.40;;;3.40;;
11590;SDS011;5851;54.050;9.974;2023-08-06T04:37:27;6.83;;;3.50;;
11590;SDS011;5851;54.050;9.974;2023-08-06T04:39:54;6.47;;;3.80;;
11590;SDS011;5851;54.050;9.974;2023-08-06T04:42:21;4.57;;;3.40;;
11590;SDS011;5851;54.050;9.974;2023-08-06T04:44:49;4.97;;;3.33;;
11590;SDS011;5851;54.050;9.974;2023-08-06T04:47:17;4.10;;;3.47;;
11590;SDS011;5851;54.050;9.974;2023-08-06T04:49:43;5.80;;;3.77;;
11590;SDS011;5851;54.050;9.974;2023-08-06T04:52:10;4.90;;;3.20;;
11590;SDS011;5851;54.050;9.974;2023-08-06T04:54:37;5.70;;;3.30;;
11590;SDS011;5851;54.050;9.974;2023-08-06T04:57:04;3.23;;;2.90;;
11590;SDS011;5851;54.050;9.974;2023-08-06T04:59:31;4.77;;;3.33;;
11590;SDS011;5851;54.050;9.974;2023-08-06T05:02:00;4.00;;;3.13;;
11590;SDS011;5851;54.050;9.974;2023-08-06T05:04:26;4.90;;;3.30;;
11590;SDS011;5851;54.050;9.974;2023-08-06T05:06:53;5.67;;;3.40;;
11590;SDS011;5851;54.050;9.974;2023-08-06T05:09:20;4.33;;;3.50;;
11590;SDS011;5851;54.050;9.974;2023-08-06T05:11:47;6.93;;;3.83;;
11590;SDS011;5851;54.050;9.974;2023-08-06T05:14:15;6.53;;;3.70;;
11590;SDS011;5851;54.050;9.974;2023-08-06T05:16:42;4.20;;;3.60;;
11590;SDS011;5851;54.050;9.974;2023-08-06T05:19:10;4.70;;;3.50;;
11590;SDS011;5851;54.050;9.974;2023-08-06T05:21:37;4.57;;;3.60;;
11590;SDS011;5851;54.050;9.974;2023-08-06T05:24:04;7.77;;;3.53;;
11590;SDS011;5851;54.050;9.974;2023-08-06T05:26:31;5.77;;;3.67;;
11590;SDS011;5851;54.050;9.974;2023-08-06T05:28:58;4.33;;;3.60;;
11590;SDS011;5851;54.050;9.974;2023-08-06T05:31:25;5.17;;;3.90;;
11590;SDS011;5851;54.050;9.974;2023-08-06T05:33:53;4.27;;;3.70;;
11590;SDS011;5851;54.050;9.974;2023-08-06T05:36:22;4.23;;;3.73;;
11590;SDS011;5851;54.050;9.974;2023-08-06T05:38:49;4.27;;;3.53;;
11590;SDS011;5851;54.050;9.974;2023-08-06T05:41:16;6.10;;;3.80;;
11590;SDS011;5851;54.050;9.974;2023-08-06T05:43:42;4.60;;;3.73;;
11590;SDS011;5851;54.050;9.974;2023-08-06T05:46:09;6.50;;;4.13;;
11590;SDS011;5851;54.050;9.974;2023-08-06T05:48:36;4.37;;;3.33;;
11590;SDS011;5851;54.050;9.974;2023-08-06T05:51:03;5.97;;;3.90;;
11590;SDS011;5851;54.050;9.974;2023-08-06T05:53:31;4.63;;;3.67;;
11590;SDS011;5851;54.050;9.974;2023-08-06T05:55:58;5.70;;;3.67;;
11590;SDS011;5851;54.050;9.974;2023-08-06T05:58:25;4.40;;;3.70;;
11590;SDS011;5851;54.050;9.974;2023-08-06T06:00:54;7.43;;;4.10;;
11590;SDS011;5851;54.050;9.974;2023-08-06T06:03:21;7.23;;;3.70;;
11590;SDS011;5851;54.050;9.974;2023-08-06T06:05:48;5.97;;;3.93;;
11590;SDS011;5851;54.050;9.974;2023-08-06T06:08:15;6.10;;;3.93;;
11590;SDS011;5851;54.050;9.974;2023-08-06T06:10:43;6.70;;;3.73;;
11590;SDS011;5851;54.050;9.974;2023-08-06T06:13:10;5.30;;;4.10;;
11590;SDS011;5851;54.050;9.974;2023-08-06T06:15:37;7.50;;;3.90;;
11590;SDS011;5851;54.050;9.974;2023-08-06T06:18:04;4.27;;;3.60;;
11590;SDS011;5851;54.050;9.974;2023-08-06T06:20:31;5.43;;;4.00;;
11590;SDS011;5851;54.050;9.974;2023-08-06T06:22:58;7.23;;;4.00;;
11590;SDS011;5851;54.050;9.974;2023-08-06T06:25:25;6.83;;;3.80;;
11590;SDS011;5851;54.050;9.974;2023-08-06T06:27:54;7.00;;;4.10;;
11590;SDS011;5851;54.050;9.974;2023-08-06T06:30:21;5.83;;;4.00;;
11590;SDS011;5851;54.050;9.974;2023-08-06T06:32:48;7.50;;;4.43;;
11590;SDS011;5851;54.050;9.974;2023-08-06T06:35:14;7.10;;;4.10;;
11590;SDS011;5851;54.050;9.974;2023-08-06T06:37:41;6.70;;;4.57;;
11590;SDS011;5851;54.050;9.974;2023-08-06T06:40:09;4.30;;;3.80;;
11590;SDS011;5851;54.050;9.974;2023-08-06T06:42:36;6.07;;;4.10;;
11590;SDS011;5851;54.050;9.974;2023-08-06T06:45:05;5.77;;;4.60;;
11590;SDS011;5851;54.050;9.974;2023-08-06T06:47:33;6.00;;;4.00;;
11590;SDS011;5851;54.050;9.974;2023-08-06T06:50:00;7.23;;;4.57;;
11590;SDS011;5851;54.050;9.974;2023-08-06T06:52:27;4.73;;;4.17;;
11590;SDS011;5851;54.050;9.974;2023-08-06T06:54:54;5.00;;;4.50;;
11590;SDS011;5851;54.050;9.974;2023-08-06T06:57:21;4.93;;;3.90;;
11590;SDS011;5851;54.050;9.974;2023-08-06T06:59:48;7.57;;;4.47;;
11590;SDS011;5851;54.050;9.974;2023-08-06T07:02:16;5.27;;;4.33;;
11590;SDS011;5851;54.050;9.974;2023-08-06T07:04:43;5.40;;;4.10;;
11590;SDS011;5851;54.050;9.974;2023-08-06T07:07:10;7.87;;;6.33;;
11590;SDS011;5851;54.050;9.974;2023-08-06T07:09:36;7.23;;;5.30;;
11590;SDS011;5851;54.050;9.974;2023-08-06T07:12:04;5.27;;;4.60;;
11590;SDS011;5851;54.050;9.974;2023-08-06T07:14:31;5.67;;;4.73;;
11590;SDS011;5851;54.050;9.974;2023-08-06T07:16:58;8.13;;;4.67;;
11590;SDS011;5851;54.050;9.974;2023-08-06T07:19:26;6.17;;;4.63;;
11590;SDS011;5851;54.050;9.974;2023-08-06T07:21:53;6.00;;;4.43;;
11590;SDS011;5851;54.050;9.974;2023-08-06T07:24:20;6.10;;;4.33;;
11590;SDS011;5851;54.050;9.974;2023-08-06T07:26:47;6.10;;;4.50;;
11590;SDS011;5851;54.050;9.974;2023-08-06T07:29:14;9.13;;;4.80;;
11590;SDS011;5851;54.050;9.974;2023-08-06T07:31:44;7.33;;;4.70;;
11590;SDS011;5851;54.050;9.974;2023-08-06T07:34:11;7.20;;;4.73;;
11590;SDS011;5851;54.050;9.974;2023-08-06T07:36:40;8.57;;;5.00;;
11590;SDS011;5851;54.050;9.974;2023-08-06T07:39:09;6.63;;;4.83;;
11590;SDS011;5851;54.050;9.974;2023-08-06T07:41:36;8.20;;;5.10;;
11590;SDS011;5851;54.050;9.974;2023-08-06T07:44:03;5.97;;;4.70;;
11590;SDS011;5851;54.050;9.974;2023-08-06T07:46:30;8.63;;;5.00;;
11590;SDS011;5851;54.050;9.974;2023-08-06T07:48:58;5.37;;;4.23;;
11590;SDS011;5851;54.050;9.974;2023-08-06T07:51:24;7.90;;;4.40;;
11590;SDS011;5851;54.050;9.974;2023-08-06T07:53:53;5.27;;;4.77;;
11590;SDS011;5851;54.050;9.974;2023-08-06T07:56:19;6.97;;;4.80;;
11590;SDS011;5851;54.050;9.974;2023-08-06T07:58:46;6.67;;;4.50;;
11590;SDS011;5851;54.050;9.974;2023-08-06T08:01:13;5.23;;;4.73;;
11590;SDS011;5851;54.050;9.974;2023-08-06T08:03:40;4.83;;;4.27;;
11590;SDS011;5851;54.050;9.974;2023-08-06T08:06:07;5.40;;;4.53;;
11590;SDS011;5851;54.050;9.974;2023-08-06T08:08:34;8.03;;;4.70;;
11590;SDS011;5851;54.050;9.974;2023-08-06T08:11:05;7.70;;;4.60;;
11590;SDS011;5851;54.050;9.974;2023-08-06T08:13:32;5.70;;;4.13;;
11590;SDS011;5851;54.050;9.974;2023-08-06T08:15:59;7.23;;;4.20;;
11590;SDS011;5851;54.050;9.974;2023-08-06T08:18:27;5.13;;;4.38;;
11590;SDS011;5851;54.050;9.974;2023-08-06T08:20:54;6.03;;;4.72;;
11590;SDS011;5851;54.050;9.974;2023-08-06T08:23:21;6.20;;;4.13;;
11590;SDS011;5851;54.050;9.974;2023-08-06T08:25:48;6.47;;;4.37;;
11590;SDS011;5851;54.050;9.974;2023-08-06T08:28:19;6.43;;;4.50;;
11590;SDS011;5851;54.050;9.974;2023-08-06T08:30:45;8.33;;;4.33;;
11590;SDS011;5851;54.050;9.974;2023-08-06T08:33:12;6.87;;;4.53;;
11590;SDS011;5851;54.050;9.974;2023-08-06T08:35:39;7.30;;;4.23;;
11590;SDS011;5851;54.050;9.974;2023-08-06T08:38:06;6.37;;;4.13;;
11590;SDS011;5851;54.050;9.974;2023-08-06T08:40:35;6.60;;;4.00;;
11590;SDS011;5851;54.050;9.974;2023-08-06T08:43:08;5.63;;;3.93;;
11590;SDS011;5851;54.050;9.974;2023-08-06T08:45:37;7.77;;;3.97;;
11590;SDS011;5851;54.050;9.974;2023-08-06T08:48:08;8.13;;;4.17;;
11590;SDS011;5851;54.050;9.974;2023-08-06T08:50:39;5.60;;;3.77;;
11590;SDS011;5851;54.050;9.974;2023-08-06T08:53:07;7.60;;;3.70;;
11590;SDS011;5851;54.050;9.974;2023-08-06T08:55:36;7.83;;;3.83;;
11590;SDS011;5851;54.050;9.974;2023-08-06T08:58:04;6.37;;;3.90;;
11590;SDS011;5851;54.050;9.974;2023-08-06T09:00:31;6.03;;;4.03;;
11590;SDS011;5851;54.050;9.974;2023-08-06T09:03:00;7.97;;;4.43;;
11590;SDS011;5851;54.050;9.974;2023-08-06T09:05:28;7.83;;;4.37;;
11590;SDS011;5851;54.050;9.974;2023-08-06T09:07:56;5.90;;;4.07;;
11590;SDS011;5851;54.050;9.974;2023-08-06T09:10:31;5.03;;;4.03;;
11590;SDS011;5851;54.050;9.974;2023-08-06T09:12:59;5.80;;;4.10;;
11590;SDS011;5851;54.050;9.974;2023-08-06T09:15:27;6.27;;;4.00;;
11590;SDS011;5851;54.050;9.974;2023-08-06T09:17:56;5.37;;;4.17;;
11590;SDS011;5851;54.050;9.974;2023-08-06T09:20:24;8.40;;;4.40;;
11590;SDS011;5851;54.050;9.974;2023-08-06T09:22:52;8.93;;;4.20;;
11590;SDS011;5851;54.050;9.974;2023-08-06T09:25:21;9.13;;;5.17;;
11590;SDS011;5851;54.050;9.974;2023-08-06T09:27:49;7.25;;;4.03;;
11590;SDS011;5851;54.050;9.974;2023-08-06T09:30:28;7.17;;;4.40;;
11590;SDS011;5851;54.050;9.974;2023-08-06T09:32:56;5.80;;;4.10;;
11590;SDS011;5851;54.050;9.974;2023-08-06T09:35:27;6.80;;;3.80;;
11590;SDS011;5851;54.050;9.974;2023-08-06T09:37:56;5.57;;;3.80;;
11590;SDS011;5851;54.050;9.974;2023-08-06T09:40:32;6.40;;;4.00;;
11590;SDS011;5851;54.050;9.974;2023-08-06T09:42:59;5.57;;;4.23;;
11590;SDS011;5851;54.050;9.974;2023-08-06T09:45:28;4.97;;;3.83;;
11590;SDS011;5851;54.050;9.974;2023-08-06T09:47:57;5.73;;;4.50;;
11590;SDS011;5851;54.050;9.974;2023-08-06T09:50:27;6.33;;;3.97;;
11590;SDS011;5851;54.050;9.974;2023-08-06T09:52:55;5.73;;;4.60;;
11590;SDS011;5851;54.050;9.974;2023-08-06T09:55:24;7.80;;;4.78;;
11590;SDS011;5851;54.050;9.974;2023-08-06T09:57:52;6.20;;;4.10;;
11590;SDS011;5851;54.050;9.974;2023-08-06T10:00:19;5.37;;;3.80;;
11590;SDS011;5851;54.050;9.974;2023-08-06T10:02:47;6.37;;;3.97;;
11590;SDS011;5851;54.050;9.974;2023-08-06T10:05:16;6.57;;;3.92;;
11590;SDS011;5851;54.050;9.974;2023-08-06T10:07:49;4.03;;;3.63;;
11590;SDS011;5851;54.050;9.974;2023-08-06T10:10:17;6.37;;;4.10;;
11590;SDS011;5851;54.050;9.974;2023-08-06T10:12:46;7.50;;;4.18;;
11590;SDS011;5851;54.050;9.974;2023-08-06T10:15:17;3.90;;;3.50;;
11590;SDS011;5851;54.050;9.974;2023-08-06T10:17:48;6.50;;;3.70;;
11590;SDS011;5851;54.050;9.974;2023-08-06T10:20:19;8.33;;;3.90;;
11590;SDS011;5851;54.050;9.974;2023-08-06T10:22:54;5.67;;;3.73;;
11590;SDS011;5851;54.050;9.974;2023-08-06T10:25:26;4.47;;;3.60;;
11590;SDS011;5851;54.050;9.974;2023-08-06T10:27:57;4.47;;;3.33;;
11590;SDS011;5851;54.050;9.974;2023-08-06T10:30:25;4.60;;;3.20;;
11590;SDS011;5851;54.050;9.974;2023-08-06T10:32:53;7.57;;;3.67;;
11590;SDS011;5851;54.050;9.974;2023-08-06T10:35:29;5.37;;;3.57;;
11590;SDS011;5851;54.050;9.974;2023-08-06T10:38:04;4.07;;;3.17;;
11590;SDS011;5851;54.050;9.974;2023-08-06T10:40:32;4.90;;;3.20;;
11590;SDS011;5851;54.050;9.974;2023-08-06T10:42:59;4.17;;;3.13;;
11590;SDS011;5851;54.050;9.974;2023-08-06T10:45:27;4.65;;;3.20;;
11590;SDS011;5851;54.050;9.974;2023-08-06T10:47:55;3.93;;;3.23;;
11590;SDS011;5851;54.050;9.974;2023-08-06T10:50:23;4.37;;;3.40;;
11590;SDS011;5851;54.050;9.974;2023-08-06T10:52:54;5.45;;;3.58;;
11590;SDS011;5851;54.050;9.974;2023-08-06T10:55:26;5.30;;;3.50;;
11590;SDS011;5851;54.050;9.974;2023-08-06T10:57:54;7.63;;;3.77;;
11590;SDS011;5851;54.050;9.974;2023-08-06T11:00:22;4.07;;;3.10;;
11590;SDS011;5851;54.050;9.974;2023-08-06T11:02:49;3.23;;;2.97;;
11590;SDS011;5851;54.050;9.974;2023-08-06T11:05:17;5.07;;;3.40;;
11590;SDS011;5851;54.050;9.974;2023-08-06T11:07:44;5.03;;;2.90;;
11590;SDS011;5851;54.050;9.974;2023-08-06T11:10:13;4.60;;;3.23;;
11590;SDS011;5851;54.050;9.974;2023-08-06T11:12:42;6.28;;;3.05;;
11590;SDS011;5851;54.050;9.974;2023-08-06T11:15:09;4.83;;;3.00;;
11590;SDS011;5851;54.050;9.974;2023-08-06T11:17:37;4.97;;;3.40;;
11590;SDS011;5851;54.050;9.974;2023-08-06T11:20:07;6.47;;;3.17;;
11590;SDS011;5851;54.050;9.974;2023-08-06T11:22:35;3.30;;;3.00;;
11590;SDS011;5851;54.050;9.974;2023-08-06T11:25:03;3.75;;;2.92;;
11590;SDS011;5851;54.050;9.974;2023-08-06T11:27:31;4.20;;;3.03;;
11590;SDS011;5851;54.050;9.974;2023-08-06T11:30:00;3.13;;;2.77;;
11590;SDS011;5851;54.050;9.974;2023-08-06T11:32:27;3.10;;;2.80;;
11590;SDS011;5851;54.050;9.974;2023-08-06T11:34:54;5.83;;;3.30;;
11590;SDS011;5851;54.050;9.974;2023-08-06T11:37:21;4.67;;;2.97;;
11590;SDS011;5851;54.050;9.974;2023-08-06T11:39:50;3.73;;;3.10;;
11590;SDS011;5851;54.050;9.974;2023-08-06T11:42:17;4.27;;;3.13;;
11590;SDS011;5851;54.050;9.974;2023-08-06T11:44:44;4.83;;;2.83;;
11590;SDS011;5851;54.050;9.974;2023-08-06T11:47:16;4.07;;;2.90;;
11590;SDS011;5851;54.050;9.974;2023-08-06T11:49:44;4.17;;;2.47;;
11590;SDS011;5851;54.050;9.974;2023-08-06T11:52:13;3.53;;;2.58;;
11590;SDS011;5851;54.050;9.974;2023-08-06T11:54:44;3.27;;;2.73;;
11590;SDS011;5851;54.050;9.974;2023-08-06T11:57:12;3.90;;;2.90;;
11590;SDS011;5851;54.050;9.974;2023-08-06T11:59:39;4.80;;;3.00;;
11590;SDS011;5851;54.050;9.974;2023-08-06T12:02:08;2.90;;;2.70;;
11590;SDS011;5851;54.050;9.974;2023-08-06T12:05:00;3.03;;;2.80;;
11590;SDS011;5851;54.050;9.974;2023-08-06T12:07:29;4.63;;;2.70;;
11590;SDS011;5851;54.050;9.974;2023-08-06T12:09:56;2.93;;;2.60;;
11590;SDS011;5851;54.050;9.974;2023-08-06T12:12:24;2.90;;;2.60;;
11590;SDS011;5851;54.050;9.974;2023-08-06T12:14:51;3.60;;;3.20;;
11590;SDS011;5851;54.050;9.974;2023-08-06T12:17:18;4.13;;;3.00;;
11590;SDS011;5851;54.050;9.974;2023-08-06T12:19:45;5.23;;;2.73;;
11590;SDS011;5851;54.050;9.974;2023-08-06T12:22:14;5.90;;;2.77;;
11590;SDS011;5851;54.050;9.974;2023-08-06T12:24:41;3.60;;;2.57;;
11590;SDS011;5851;54.050;9.974;2023-08-06T12:27:09;3.13;;;2.83;;
11590;SDS011;5851;54.050;9.974;2023-08-06T12:29:36;3.00;;;2.70;;
11590;SDS011;5851;54.050;9.974;2023-08-06T12:32:03;3.37;;;2.83;;
11590;SDS011;5851;54.050;9.974;2023-08-06T12:34:31;3.78;;;2.92;;
11590;SDS011;5851;54.050;9.974;2023-08-06T12:36:58;4.23;;;2.77;;
11590;SDS011;5851;54.050;9.974;2023-08-06T12:39:26;5.47;;;3.00;;
11590;SDS011;5851;54.050;9.974;2023-08-06T12:41:54;5.30;;;2.60;;
11590;SDS011;5851;54.050;9.974;2023-08-06T12:44:22;2.83;;;2.50;;
11590;SDS011;5851;54.050;9.974;2023-08-06T12:46:49;4.53;;;2.40;;
11590;SDS011;5851;54.050;9.974;2023-08-06T12:49:16;2.87;;;2.40;;
11590;SDS011;5851;54.050;9.974;2023-08-06T12:51:43;2.53;;;2.30;;
11590;SDS011;5851;54.050;9.974;2023-08-06T12:54:10;3.30;;;2.33;;
11590;SDS011;5851;54.050;9.974;2023-08-06T12:56:38;4.70;;;2.57;;
11590;SDS011;5851;54.050;9.974;2023-08-06T12:59:05;4.77;;;2.13;;
11590;SDS011;5851;54.050;9.974;2023-08-06T13:01:32;3.45;;;2.35;;
11590;SDS011;5851;54.050;9.974;2023-08-06T13:03:59;3.25;;;2.50;;
11590;SDS011;5851;54.050;9.974;2023-08-06T13:06:26;3.07;;;2.30;;
11590;SDS011;5851;54.050;9.974;2023-08-06T13:08:53;4.27;;;2.30;;
11590;SDS011;5851;54.050;9.974;2023-08-06T13:11:20;3.20;;;2.70;;
11590;SDS011;5851;54.050;9.974;2023-08-06T13:13:48;4.60;;;2.50;;
11590;SDS011;5851;54.050;9.974;2023-08-06T13:16:15;3.17;;;2.60;;
11590;SDS011;5851;54.050;9.974;2023-08-06T13:18:42;5.20;;;2.60;;
11590;SDS011;5851;54.050;9.974;2023-08-06T13:21:09;4.07;;;2.72;;
11590;SDS011;5851;54.050;9.974;2023-08-06T13:23:36;4.17;;;2.60;;
11590;SDS011;5851;54.050;9.974;2023-08-06T13:26:03;4.53;;;2.73;;
11590;SDS011;5851;54.050;9.974;2023-08-06T13:28:30;3.72;;;2.45;;
11590;SDS011;5851;54.050;9.974;2023-08-06T13:30:58;3.30;;;2.43;;
11590;SDS011;5851;54.050;9.974;2023-08-06T13:33:25;3.17;;;2.60;;
11590;SDS011;5851;54.050;9.974;2023-08-06T13:35:52;2.60;;;2.40;;
11590;SDS011;5851;54.050;9.974;2023-08-06T13:38:32;2.90;;;2.60;;
11590;SDS011;5851;54.050;9.974;2023-08-06T13:40:59;3.60;;;2.70;;
11590;SDS011;5851;54.050;9.974;2023-08-06T13:43:25;2.80;;;2.50;;
11590;SDS011;5851;54.050;9.974;2023-08-06T13:45:53;4.03;;;2.60;;
11590;SDS011;5851;54.050;9.974;2023-08-06T13:48:21;4.65;;;2.53;;
11590;SDS011;5851;54.050;9.974;2023-08-06T13:50:48;5.57;;;2.83;;
11590;SDS011;5851;54.050;9.974;2023-08-06T13:53:15;4.10;;;2.78;;
11590;SDS011;5851;54.050;9.974;2023-08-06T13:55:42;2.97;;;2.40;;
11590;SDS011;5851;54.050;9.974;2023-08-06T13:58:09;4.93;;;2.78;;
11590;SDS011;5851;54.050;9.974;2023-08-06T14:00:36;3.67;;;2.47;;
11590;SDS011;5851;54.050;9.974;2023-08-06T14:03:03;2.92;;;2.63;;
11590;SDS011;5851;54.050;9.974;2023-08-06T14:05:32;3.33;;;2.43;;
11590;SDS011;5851;54.050;9.974;2023-08-06T14:07:58;4.40;;;2.50;;
11590;SDS011;5851;54.050;9.974;2023-08-06T14:10:25;4.27;;;2.40;;
11590;SDS011;5851;54.050;9.974;2023-08-06T14:12:52;3.43;;;2.10;;
11590;SDS011;5851;54.050;9.974;2023-08-06T14:15:19;6.63;;;2.50;;
11590;SDS011;5851;54.050;9.974;2023-08-06T14:17:46;3.80;;;2.50;;
11590;SDS011;5851;54.050;9.974;2023-08-06T14:20:14;3.50;;;2.30;;
11590;SDS011;5851;54.050;9.974;2023-08-06T14:22:42;2.77;;;2.40;;
11590;SDS011;5851;54.050;9.974;2023-08-06T14:25:09;4.20;;;2.40;;
11590;SDS011;5851;54.050;9.974;2023-08-06T14:27:36;2.43;;;2.10;;
11590;SDS011;5851;54.050;9.974;2023-08-06T14:30:04;3.30;;;2.37;;
11590;SDS011;5851;54.050;9.974;2023-08-06T14:32:32;3.60;;;2.43;;
11590;SDS011;5851;54.050;9.974;2023-08-06T14:35:00;2.87;;;2.40;;
11590;SDS011;5851;54.050;9.974;2023-08-06T14:37:27;2.40;;;2.20;;
11590;SDS011;5851;54.050;9.974;2023-08-06T14:39:56;3.05;;;2.25;;
11590;SDS011;5851;54.050;9.974;2023-08-06T14:42:22;3.43;;;2.43;;
11590;SDS011;5851;54.050;9.974;2023-08-06T14:44:50;3.27;;;2.27;;
11590;SDS011;5851;54.050;9.974;2023-08-06T14:47:19;3.47;;;2.10;;
11590;SDS011;5851;54.050;9.974;2023-08-06T14:49:46;3.13;;;2.37;;
11590;SDS011;5851;54.050;9.974;2023-08-06T14:52:30;2.33;;;2.00;;
11590;SDS011;5851;54.050;9.974;2023-08-06T14:54:59;3.17;;;1.90;;
11590;SDS011;5851;54.050;9.974;2023-08-06T14:57:28;2.57;;;2.03;;
11590;SDS011;5851;54.050;9.974;2023-08-06T14:59:56;5.80;;;2.60;;
11590;SDS011;5851;54.050;9.974;2023-08-06T15:02:23;2.50;;;2.30;;
11590;SDS011;5851;54.050;9.974;2023-08-06T15:04:50;3.23;;;2.30;;